createdAt,value
2017-11-17T00:00:39.333Z,1005.38
2017-11-17T00:01:49.406Z,1005.41
2017-11-17T00:02:59.483Z,1005.35
2017-11-17T00:04:09.567Z,1005.37
2017-11-17T00:05:19.120Z,1005.31
2017-11-17T00:06:29.241Z,1005.32
2017-11-17T00:07:39.335Z,1005.3
2017-11-17T00:08:49.429Z,1005.31
2017-11-17T00:09:59.491Z,1005.3
2017-11-17T00:11:09.346Z,1005.27
2017-11-17T00:12:19.441Z,1005.26
2017-11-17T00:13:29.531Z,1005.24
2017-11-17T00:14:39.372Z,1005.21
2017-11-17T00:15:49.450Z,1005.19
2017-11-17T00:16:59.268Z,1005.23
2017-11-17T00:18:09.356Z,1005.24
2017-11-17T00:19:19.423Z,1005.24
2017-11-17T00:20:29.240Z,1005.24
2017-11-17T00:21:39.312Z,1005.29
2017-11-17T00:22:49.417Z,1005.29
2017-11-17T00:23:59.226Z,1005.27
2017-11-17T00:25:08.502Z,1005.26
2017-11-17T00:26:18.572Z,1005.28
2017-11-17T00:27:28.406Z,1005.33
2017-11-17T00:28:40.426Z,1005.33
2017-11-17T00:29:50.512Z,1005.31
2017-11-17T00:31:00.572Z,1005.29
2017-11-17T00:32:10.379Z,1005.29
2017-11-17T00:33:20.194Z,1005.34
2017-11-17T00:34:30.260Z,1005.31
2017-11-17T00:35:40.072Z,1005.3
2017-11-17T00:36:49.356Z,1005.32
2017-11-17T00:37:59.421Z,1005.28
2017-11-17T00:39:09.208Z,1005.36
2017-11-17T00:40:19.063Z,1005.35
2017-11-17T00:41:41.881Z,1005.34
2017-11-17T00:42:51.698Z,1005.31
2017-11-17T00:44:01.776Z,1005.36
2017-11-17T00:45:11.587Z,1005.32
2017-11-17T00:46:20.908Z,1005.35
2017-11-17T00:47:30.973Z,1005.35
2017-11-17T00:48:40.871Z,1005.35
2017-11-17T00:49:50.940Z,1005.33
2017-11-17T00:51:00.756Z,1005.34
2017-11-17T00:52:10.293Z,1005.35
2017-11-17T00:53:20.376Z,1005.39
2017-11-17T00:54:31.280Z,1005.36
2017-11-17T00:55:41.366Z,1005.37
2017-11-17T00:56:51.195Z,1005.33
2017-11-17T00:58:01.281Z,1005.35
2017-11-17T00:59:11.363Z,1005.37
2017-11-17T01:00:21.442Z,1005.38
2017-11-17T01:01:31.254Z,1005.37
2017-11-17T01:02:41.318Z,1005.38
2017-11-17T01:03:51.386Z,1005.42
2017-11-17T01:05:00.953Z,1005.37
2017-11-17T01:06:11.069Z,1005.37
2017-11-17T01:07:21.145Z,1005.37
2017-11-17T01:08:31.261Z,1005.4
2017-11-17T01:09:41.343Z,1005.34
2017-11-17T01:10:51.161Z,1005.37
2017-11-17T01:12:01.244Z,1005.39
2017-11-17T01:13:11.067Z,1005.35
2017-11-17T01:14:20.616Z,1005.34
2017-11-17T01:15:30.716Z,1005.36
2017-11-17T01:16:40.244Z,1005.35
2017-11-17T01:17:50.321Z,1005.35
2017-11-17T01:19:00.412Z,1005.37
2017-11-17T01:20:10.493Z,1005.35
2017-11-17T01:21:20.306Z,1005.36
2017-11-17T01:22:30.118Z,1005.37
2017-11-17T01:23:40.199Z,1005.34
2017-11-17T01:24:50.022Z,1005.37
2017-11-17T01:25:59.887Z,1005.34
2017-11-17T01:27:09.988Z,1005.35
2017-11-17T01:28:19.244Z,1005.33
2017-11-17T01:29:29.370Z,1005.36
2017-11-17T01:30:39.448Z,1005.32
2017-11-17T01:31:49.412Z,1005.32
2017-11-17T01:32:59.223Z,1005.37
2017-11-17T01:34:09.040Z,1005.34
2017-11-17T01:35:18.577Z,1005.34
2017-11-17T01:36:28.114Z,1005.35
2017-11-17T01:37:38.188Z,1005.37
2017-11-17T01:38:48.260Z,1005.36
2017-11-17T01:39:58.068Z,1005.33
2017-11-17T01:41:08.135Z,1005.3
2017-11-17T01:42:17.947Z,1005.32
2017-11-17T01:43:27.755Z,1005.33
2017-11-17T01:44:37.591Z,1005.27
2017-11-17T01:45:47.389Z,1005.36
2017-11-17T01:46:57.219Z,1005.35
2017-11-17T01:48:06.752Z,1005.33
2017-11-17T01:49:16.838Z,1005.36
2017-11-17T01:50:26.632Z,1005.37
2017-11-17T01:51:36.448Z,1005.35
2017-11-17T01:52:46.259Z,1005.38
2017-11-17T01:53:56.062Z,1005.33
2017-11-17T01:55:05.916Z,1005.35
2017-11-17T01:56:15.728Z,1005.33
2017-11-17T01:57:25.319Z,1005.31
2017-11-17T01:58:35.131Z,1005.35
2017-11-17T01:59:44.929Z,1005.37
2017-11-17T02:00:54.470Z,1005.38
2017-11-17T02:02:04.332Z,1005.34
2017-11-17T02:03:14.390Z,1005.3
2017-11-17T02:04:24.479Z,1005.36
2017-11-17T02:05:34.313Z,1005.26
2017-11-17T02:06:44.457Z,1005.32
2017-11-17T02:07:54.537Z,1005.32
2017-11-17T02:09:04.056Z,1005.27
2017-11-17T02:10:13.345Z,1005.45
2017-11-17T02:11:23.411Z,1005.34
2017-11-17T02:12:33.267Z,1005.44
2017-11-17T02:13:43.099Z,1005.4
2017-11-17T02:14:52.369Z,1005.4
2017-11-17T02:16:02.196Z,1005.34
2017-11-17T02:17:12.271Z,1005.39
2017-11-17T02:18:22.398Z,1005.36
2017-11-17T02:19:32.463Z,1005.41
2017-11-17T02:20:42.547Z,1005.42
2017-11-17T02:21:52.367Z,1005.43
2017-11-17T02:23:02.459Z,1005.47
2017-11-17T02:24:12.634Z,1005.51
2017-11-17T02:25:22.698Z,1005.55
2017-11-17T02:26:32.779Z,1005.54
2017-11-17T02:27:42.841Z,1005.61
2017-11-17T02:28:52.942Z,1005.59
2017-11-17T02:30:02.552Z,1005.6
2017-11-17T02:31:12.650Z,1005.65
2017-11-17T02:32:21.921Z,1005.64
2017-11-17T02:33:31.996Z,1005.56
2017-11-17T02:34:42.061Z,1005.71
2017-11-17T02:35:51.889Z,1005.68
2017-11-17T02:37:01.971Z,1005.68
2017-11-17T02:38:12.077Z,1005.65
2017-11-17T02:39:21.868Z,1005.66
2017-11-17T02:40:31.957Z,1005.73
2017-11-17T02:41:42.112Z,1005.69
2017-11-17T02:42:51.930Z,1005.71
2017-11-17T02:44:01.727Z,1005.72
2017-11-17T02:45:11.289Z,1005.73
2017-11-17T02:46:21.109Z,1005.73
2017-11-17T02:47:31.179Z,1005.71
2017-11-17T02:48:41.244Z,1005.65
2017-11-17T02:49:50.778Z,1005.7
2017-11-17T02:51:00.615Z,1005.66
2017-11-17T02:52:10.698Z,1005.64
2017-11-17T02:53:20.777Z,1005.68
2017-11-17T02:54:30.571Z,1005.66
2017-11-17T02:55:40.368Z,1005.65
2017-11-17T02:56:50.440Z,1005.69
2017-11-17T02:58:00.253Z,1005.66
2017-11-17T02:59:10.333Z,1005.67
2017-11-17T03:00:21.392Z,1005.68
2017-11-17T03:01:31.186Z,1005.71
2017-11-17T03:33:21.852Z,1005.75
2017-11-17T03:34:31.643Z,1005.71
2017-11-17T03:35:41.698Z,1005.73
2017-11-17T03:36:51.496Z,1005.75
2017-11-17T03:38:01.376Z,1005.73
2017-11-17T03:39:11.237Z,1005.76
2017-11-17T03:40:21.301Z,1005.78
2017-11-17T03:41:31.111Z,1005.77
2017-11-17T03:42:41.211Z,1005.76
2017-11-17T03:43:51.301Z,1005.73
2017-11-17T03:45:01.379Z,1005.76
2017-11-17T03:46:11.196Z,1005.75
2017-11-17T03:47:21.297Z,1005.75
2017-11-17T03:48:31.103Z,1005.76
2017-11-17T03:49:41.167Z,1005.71
2017-11-17T03:50:51.259Z,1005.7
2017-11-17T03:52:01.344Z,1005.7
2017-11-17T03:53:11.166Z,1005.75
2017-11-17T03:54:21.250Z,1005.7
2017-11-17T03:55:30.782Z,1005.69
2017-11-17T03:56:40.579Z,1005.67
2017-11-17T03:57:50.397Z,1005.7
2017-11-17T03:58:59.952Z,1005.72
2017-11-17T04:00:10.021Z,1005.72
2017-11-17T04:01:20.096Z,1005.71
2017-11-17T04:02:29.949Z,1005.69
2017-11-17T04:03:39.765Z,1005.7
2017-11-17T04:04:49.883Z,1005.71
2017-11-17T04:05:59.971Z,1005.69
2017-11-17T04:07:09.805Z,1005.74
2017-11-17T04:08:19.926Z,1005.66
2017-11-17T04:09:29.731Z,1005.7
2017-11-17T04:10:39.807Z,1005.7
2017-11-17T04:11:49.872Z,1005.74
2017-11-17T04:12:59.688Z,1005.75
2017-11-17T04:14:09.765Z,1005.76
2017-11-17T04:15:19.568Z,1005.75
2017-11-17T04:16:29.375Z,1005.76
2017-11-17T04:17:38.947Z,1005.73
2017-11-17T04:18:48.476Z,1005.74
2017-11-17T04:19:58.610Z,1005.73
2017-11-17T04:21:08.447Z,1005.67
2017-11-17T04:22:18.253Z,1005.73
2017-11-17T04:23:28.079Z,1005.73
2017-11-17T04:24:37.634Z,1005.63
2017-11-17T04:25:47.700Z,1005.66
2017-11-17T04:26:57.766Z,1005.73
2017-11-17T04:28:07.869Z,1005.66
2017-11-17T04:29:17.988Z,1005.67
2017-11-17T04:30:28.060Z,1005.7
2017-11-17T04:31:37.955Z,1005.69
2017-11-17T04:32:47.757Z,1005.75
2017-11-17T04:33:57.822Z,1005.77
2017-11-17T04:35:07.892Z,1005.76
2017-11-17T04:36:17.703Z,1005.76
2017-11-17T04:37:27.831Z,1005.74
2017-11-17T04:38:37.642Z,1005.82
2017-11-17T04:39:47.724Z,1005.81
2017-11-17T04:40:57.521Z,1005.81
2017-11-17T04:42:07.344Z,1005.74
2017-11-17T04:43:17.164Z,1005.82
2017-11-17T04:44:27.257Z,1005.78
2017-11-17T04:45:37.088Z,1005.82
2017-11-17T04:46:47.153Z,1005.79
2017-11-17T04:47:56.960Z,1005.81
2017-11-17T04:49:06.827Z,1005.82
2017-11-17T04:50:16.640Z,1005.77
2017-11-17T04:51:26.693Z,1005.83
2017-11-17T04:52:36.764Z,1005.85
2017-11-17T04:53:46.573Z,1005.81
2017-11-17T04:54:56.422Z,1005.82
2017-11-17T04:56:06.508Z,1005.79
2017-11-17T04:57:16.328Z,1005.83
2017-11-17T04:58:26.406Z,1005.85
2017-11-17T04:59:36.261Z,1005.84
2017-11-17T05:00:46.120Z,1005.8
2017-11-17T05:01:56.185Z,1005.88
2017-11-17T05:03:06.004Z,1005.83
2017-11-17T05:04:15.805Z,1005.89
2017-11-17T05:05:25.647Z,1005.83
2017-11-17T05:06:35.796Z,1005.83
2017-11-17T05:07:45.862Z,1005.82
2017-11-17T05:08:55.674Z,1005.85
2017-11-17T05:10:05.483Z,1005.82
2017-11-17T05:11:15.311Z,1005.82
2017-11-17T05:12:25.190Z,1005.84
2017-11-17T05:13:34.999Z,1005.74
2017-11-17T05:14:45.073Z,1005.75
2017-11-17T05:15:54.885Z,1005.8
2017-11-17T05:17:04.966Z,1005.83
2017-11-17T05:18:15.028Z,1005.76
2017-11-17T05:19:25.095Z,1005.81
2017-11-17T05:20:34.886Z,1005.74
2017-11-17T05:21:44.693Z,1005.79
2017-11-17T05:22:54.763Z,1005.85
2017-11-17T05:24:04.831Z,1005.83
2017-11-17T05:25:14.649Z,1005.83
2017-11-17T05:26:24.734Z,1005.83
2017-11-17T05:27:34.565Z,1005.86
2017-11-17T05:28:44.637Z,1005.83
2017-11-17T05:29:54.714Z,1005.86
2017-11-17T05:31:04.516Z,1005.89
2017-11-17T05:32:14.600Z,1005.87
2017-11-17T05:33:24.681Z,1005.89
2017-11-17T05:34:34.471Z,1005.86
2017-11-17T05:35:44.285Z,1005.87
2017-11-17T05:36:54.361Z,1005.88
2017-11-17T05:38:04.164Z,1005.89
2017-11-17T05:39:14.224Z,1005.84
2017-11-17T05:40:24.038Z,1005.86
2017-11-17T05:41:33.826Z,1005.86
2017-11-17T05:42:43.886Z,1005.89
2017-11-17T05:43:53.705Z,1005.83
2017-11-17T05:45:03.782Z,1005.83
2017-11-17T05:46:13.850Z,1005.86
2017-11-17T05:47:23.941Z,1005.84
2017-11-17T05:48:34.018Z,1005.81
2017-11-17T05:49:44.100Z,1005.8
2017-11-17T05:50:53.920Z,1005.79
2017-11-17T05:52:03.740Z,1005.82
2017-11-17T05:53:13.604Z,1005.78
2017-11-17T05:54:23.443Z,1005.75
2017-11-17T05:55:33.253Z,1005.79
2017-11-17T05:56:43.049Z,1005.83
2017-11-17T05:57:52.611Z,1005.85
2017-11-17T05:59:02.741Z,1005.85
2017-11-17T06:00:12.810Z,1005.85
2017-11-17T06:01:22.898Z,1005.85
2017-11-17T06:02:32.729Z,1005.84
2017-11-17T06:03:42.522Z,1005.9
2017-11-17T06:04:52.637Z,1005.94
2017-11-17T06:06:02.457Z,1005.9
2017-11-17T06:07:12.260Z,1005.98
2017-11-17T06:08:22.336Z,1005.93
2017-11-17T06:09:32.386Z,1005.94
2017-11-17T06:10:42.511Z,1005.95
2017-11-17T06:11:52.590Z,1005.94
2017-11-17T06:13:02.405Z,1005.93
2017-11-17T06:14:12.511Z,1005.97
2017-11-17T06:15:22.584Z,1005.96
2017-11-17T06:16:32.171Z,1005.98
2017-11-17T06:17:41.982Z,1005.99
2017-11-17T06:18:52.048Z,1005.98
2017-11-17T06:20:01.861Z,1005.96
2017-11-17T06:21:11.959Z,1006
2017-11-17T06:22:21.497Z,1005.98
2017-11-17T06:23:31.295Z,1005.93
2017-11-17T06:24:41.108Z,1005.96
2017-11-17T06:25:50.673Z,1005.97
2017-11-17T06:27:00.750Z,1005.96
2017-11-17T06:28:10.538Z,1005.94
2017-11-17T06:29:20.344Z,1005.91
2017-11-17T06:30:29.889Z,1005.96
2017-11-17T06:31:39.432Z,1006
2017-11-17T06:32:48.705Z,1006.02
2017-11-17T06:33:58.566Z,1006.03
2017-11-17T06:35:08.407Z,1006.06
2017-11-17T06:36:18.480Z,1006.04
2017-11-17T06:37:28.567Z,1006.04
2017-11-17T06:38:38.374Z,1006.08
2017-11-17T06:39:48.463Z,1006.07
2017-11-17T06:40:58.551Z,1006.1
2017-11-17T06:42:08.623Z,1006.05
2017-11-17T06:43:18.173Z,1006.04
2017-11-17T06:44:28.255Z,1006.06
2017-11-17T06:45:38.338Z,1006.03
2017-11-17T06:46:48.421Z,1006.04
2017-11-17T06:47:58.232Z,1006.07
2017-11-17T06:49:08.039Z,1006.09
2017-11-17T06:50:18.137Z,1006.06
2017-11-17T06:51:27.672Z,1006.13
2017-11-17T06:52:37.734Z,1006.17
2017-11-17T06:53:47.815Z,1006.12
2017-11-17T06:54:57.907Z,1006.13
2017-11-17T06:56:07.709Z,1006.21
2017-11-17T06:57:17.276Z,1006.15
2017-11-17T06:58:27.087Z,1006.17
2017-11-17T06:59:37.160Z,1006.14
2017-11-17T07:00:46.973Z,1006.16
2017-11-17T07:01:57.056Z,1006.2
2017-11-17T07:03:06.886Z,1006.2
2017-11-17T07:04:16.996Z,1006.24
2017-11-17T07:05:26.821Z,1006.22
2017-11-17T07:06:36.895Z,1006.2
2017-11-17T07:07:47.033Z,1006.24
2017-11-17T07:08:57.201Z,1006.24
2017-11-17T07:10:06.757Z,1006.29
2017-11-17T07:11:16.568Z,1006.3
2017-11-17T07:12:26.109Z,1006.32
2017-11-17T07:13:36.185Z,1006.33
2017-11-17T07:14:46.062Z,1006.32
2017-11-17T07:15:55.885Z,1006.32
2017-11-17T07:17:05.972Z,1006.33
2017-11-17T07:18:16.078Z,1006.38
2017-11-17T07:19:25.630Z,1006.32
2017-11-17T07:20:35.209Z,1006.35
2017-11-17T07:21:45.319Z,1006.37
2017-11-17T07:22:55.151Z,1006.38
2017-11-17T07:24:05.266Z,1006.41
2017-11-17T07:25:15.087Z,1006.45
2017-11-17T07:26:25.224Z,1006.35
2017-11-17T07:27:35.344Z,1006.38
2017-11-17T07:28:45.167Z,1006.43
2017-11-17T07:29:54.706Z,1006.39
2017-11-17T07:31:04.519Z,1006.38
2017-11-17T07:32:14.634Z,1006.44
2017-11-17T07:33:23.911Z,1006.36
2017-11-17T07:34:33.194Z,1006.42
2017-11-17T07:35:43.012Z,1006.41
2017-11-17T07:36:53.092Z,1006.41
2017-11-17T07:38:03.167Z,1006.4
2017-11-17T07:39:12.731Z,1006.43
2017-11-17T07:40:22.535Z,1006.43
2017-11-17T07:41:32.359Z,1006.5
2017-11-17T07:42:41.912Z,1006.45
2017-11-17T07:43:51.787Z,1006.51
2017-11-17T07:45:01.864Z,1006.52
2017-11-17T07:46:11.939Z,1006.5
2017-11-17T07:47:21.741Z,1006.57
2017-11-17T07:48:31.551Z,1006.53
2017-11-17T07:49:41.656Z,1006.54
2017-11-17T07:50:51.733Z,1006.59
2017-11-17T07:52:01.849Z,1006.6
2017-11-17T07:53:11.921Z,1006.61
2017-11-17T07:54:22.039Z,1006.61
2017-11-17T07:55:31.583Z,1006.64
2017-11-17T07:56:41.669Z,1006.63
2017-11-17T07:57:51.756Z,1006.57
2017-11-17T07:59:01.869Z,1006.62
2017-11-17T08:00:11.986Z,1006.7
2017-11-17T08:01:21.551Z,1006.61
2017-11-17T08:02:31.649Z,1006.6
2017-11-17T08:03:41.711Z,1006.65
2017-11-17T08:04:51.801Z,1006.62
2017-11-17T08:06:01.868Z,1006.63
2017-11-17T08:07:11.720Z,1006.61
2017-11-17T08:08:21.982Z,1006.6
2017-11-17T08:09:32.097Z,1006.67
2017-11-17T08:10:41.952Z,1006.71
2017-11-17T08:11:52.688Z,1006.64
2017-11-17T08:13:02.559Z,1006.66
2017-11-17T08:14:12.681Z,1006.72
2017-11-17T08:15:22.290Z,1006.68
2017-11-17T08:16:32.104Z,1006.7
2017-11-17T08:17:41.921Z,1006.71
2017-11-17T08:18:53.249Z,1006.7
2017-11-17T08:20:02.782Z,1006.66
2017-11-17T08:21:12.842Z,1006.65
2017-11-17T08:22:22.675Z,1006.66
2017-11-17T08:23:32.231Z,1006.69
2017-11-17T08:24:42.311Z,1006.65
2017-11-17T08:25:51.864Z,1006.63
2017-11-17T08:27:01.972Z,1006.62
2017-11-17T08:28:12.068Z,1006.63
2017-11-17T08:29:21.976Z,1006.65
2017-11-17T08:30:32.057Z,1006.64
2017-11-17T08:31:42.148Z,1006.66
2017-11-17T08:32:51.984Z,1006.7
2017-11-17T08:34:02.073Z,1006.7
2017-11-17T08:35:11.904Z,1006.65
2017-11-17T08:36:21.734Z,1006.68
2017-11-17T08:37:31.840Z,1006.71
2017-11-17T08:38:41.930Z,1006.76
2017-11-17T08:39:52.009Z,1006.7
2017-11-17T08:41:02.129Z,1006.7
2017-11-17T08:42:11.987Z,1006.7
2017-11-17T08:43:22.070Z,1006.75
2017-11-17T08:44:32.205Z,1006.68
2017-11-17T08:45:42.325Z,1006.72
2017-11-17T08:46:52.218Z,1006.76
2017-11-17T08:48:01.771Z,1006.69
2017-11-17T08:49:11.592Z,1006.74
2017-11-17T08:50:21.677Z,1006.72
2017-11-17T08:51:31.521Z,1006.73
2017-11-17T08:52:41.665Z,1006.68
2017-11-17T08:53:51.487Z,1006.65
2017-11-17T08:55:01.311Z,1006.68
2017-11-17T08:56:11.156Z,1006.65
2017-11-17T08:57:21.282Z,1006.66
2017-11-17T08:58:31.418Z,1006.76
2017-11-17T08:59:40.996Z,1006.7
2017-11-17T09:00:50.800Z,1006.66
2017-11-17T09:02:00.868Z,1006.68
2017-11-17T09:03:10.958Z,1006.67
2017-11-17T09:04:20.835Z,1006.75
2017-11-17T09:05:30.661Z,1006.7
2017-11-17T09:06:40.615Z,1006.71
2017-11-17T09:07:49.917Z,1006.72
2017-11-17T09:09:00.029Z,1006.71
2017-11-17T09:10:09.926Z,1006.69
2017-11-17T09:11:19.731Z,1006.66
2017-11-17T09:12:29.275Z,1006.66
2017-11-17T09:13:39.360Z,1006.66
2017-11-17T09:14:49.458Z,1006.65
2017-11-17T09:15:59.324Z,1006.68
2017-11-17T09:17:09.426Z,1006.64
2017-11-17T09:18:19.285Z,1006.68
2017-11-17T09:19:29.390Z,1006.65
2017-11-17T09:20:39.476Z,1006.65
2017-11-17T09:21:49.279Z,1006.64
2017-11-17T09:22:59.107Z,1006.67
2017-11-17T09:24:09.188Z,1006.62
2017-11-17T09:25:19.269Z,1006.57
2017-11-17T09:26:28.815Z,1006.59
2017-11-17T09:27:38.727Z,1006.6
2017-11-17T09:28:48.536Z,1006.57
2017-11-17T09:29:58.626Z,1006.59
2017-11-17T09:31:08.721Z,1006.55
2017-11-17T09:32:18.839Z,1006.53
2017-11-17T09:33:28.987Z,1006.53
2017-11-17T09:34:39.339Z,1006.5
2017-11-17T09:35:49.443Z,1006.52
2017-11-17T09:36:59.266Z,1006.54
2017-11-17T09:38:09.355Z,1006.53
2017-11-17T09:39:18.960Z,1006.51
2017-11-17T09:40:28.376Z,1006.52
2017-11-17T09:41:37.937Z,1006.48
2017-11-17T09:42:47.470Z,1006.46
2017-11-17T09:43:57.293Z,1006.39
2017-11-17T09:45:07.185Z,1006.44
2017-11-17T09:46:17.006Z,1006.43
2017-11-17T09:47:26.810Z,1006.41
2017-11-17T09:48:36.912Z,1006.39
2017-11-17T09:49:46.183Z,1006.41
2017-11-17T09:50:55.507Z,1006.43
2017-11-17T09:52:05.588Z,1006.41
2017-11-17T09:53:15.700Z,1006.39
2017-11-17T09:54:25.502Z,1006.39
2017-11-17T09:55:35.584Z,1006.35
2017-11-17T09:56:44.948Z,1006.35
2017-11-17T09:57:54.795Z,1006.34
2017-11-17T09:59:04.886Z,1006.36
2017-11-17T10:00:14.966Z,1006.35
2017-11-17T10:01:25.078Z,1006.38
2017-11-17T10:02:34.956Z,1006.37
2017-11-17T10:03:44.497Z,1006.36
2017-11-17T10:04:54.574Z,1006.34
2017-11-17T10:06:04.476Z,1006.38
2017-11-17T10:07:14.563Z,1006.36
2017-11-17T10:08:24.646Z,1006.33
2017-11-17T10:09:34.470Z,1006.39
2017-11-17T10:10:44.564Z,1006.36
2017-11-17T10:11:54.155Z,1006.34
2017-11-17T10:13:04.227Z,1006.34
2017-11-17T10:14:14.547Z,1006.35
2017-11-17T10:15:24.656Z,1006.37
2017-11-17T10:16:34.763Z,1006.37
2017-11-17T10:17:44.904Z,1006.3
2017-11-17T10:18:54.995Z,1006.27
2017-11-17T10:20:05.082Z,1006.26
2017-11-17T10:21:15.218Z,1006.3
2017-11-17T10:22:25.078Z,1006.32
2017-11-17T10:23:35.169Z,1006.3
2017-11-17T10:24:45.248Z,1006.25
2017-11-17T10:25:55.378Z,1006.31
2017-11-17T10:27:05.232Z,1006.26
2017-11-17T10:28:15.059Z,1006.32
2017-11-17T10:29:25.157Z,1006.36
2017-11-17T10:30:35.244Z,1006.34
2017-11-17T10:31:45.839Z,1006.37
2017-11-17T10:32:55.660Z,1006.35
2017-11-17T10:34:05.567Z,1006.34
2017-11-17T10:35:15.669Z,1006.29
2017-11-17T10:36:25.511Z,1006.28
2017-11-17T10:37:35.384Z,1006.29
2017-11-17T10:38:45.485Z,1006.27
2017-11-17T10:39:55.295Z,1006.28
2017-11-17T10:41:05.398Z,1006.24
2017-11-17T10:42:15.474Z,1006.18
2017-11-17T10:43:26.930Z,1006.17
2017-11-17T10:44:37.033Z,1006.22
2017-11-17T10:45:46.859Z,1006.2
2017-11-17T10:46:56.942Z,1006.25
2017-11-17T10:48:07.033Z,1006.2
2017-11-17T10:49:16.966Z,1006.23
2017-11-17T10:50:27.058Z,1006.22
2017-11-17T10:51:36.894Z,1006.24
2017-11-17T10:52:46.721Z,1006.31
2017-11-17T10:53:56.548Z,1006.2
2017-11-17T10:55:06.661Z,1006.23
2017-11-17T10:56:16.752Z,1006.17
2017-11-17T10:57:26.569Z,1006.17
2017-11-17T10:58:36.112Z,1006.12
2017-11-17T10:59:45.956Z,1006.12
2017-11-17T11:00:56.136Z,1006.08
2017-11-17T11:02:06.216Z,1006.06
2017-11-17T11:03:16.038Z,1006.08
2017-11-17T11:04:25.879Z,1006.02
2017-11-17T11:05:35.985Z,1005.99
2017-11-17T11:06:46.150Z,1005.99
2017-11-17T11:07:56.225Z,1006.06
2017-11-17T11:09:06.062Z,1006.03
2017-11-17T11:10:15.896Z,1006.03
2017-11-17T11:11:25.450Z,1006.07
2017-11-17T11:12:35.271Z,1005.99
2017-11-17T11:13:45.371Z,1005.94
2017-11-17T11:14:55.208Z,1005.96
2017-11-17T11:16:05.030Z,1005.96
2017-11-17T11:17:14.841Z,1005.93
2017-11-17T11:18:25.396Z,1005.98
2017-11-17T11:19:35.220Z,1005.94
2017-11-17T11:20:45.082Z,1005.92
2017-11-17T11:21:55.188Z,1005.87
2017-11-17T11:23:05.278Z,1005.87
2017-11-17T11:24:15.137Z,1005.89
2017-11-17T11:25:24.959Z,1005.9
2017-11-17T11:26:34.827Z,1005.85
2017-11-17T11:27:44.712Z,1005.87
2017-11-17T11:28:54.785Z,1005.87
2017-11-17T11:30:04.893Z,1005.83
2017-11-17T11:31:14.496Z,1005.85
2017-11-17T11:32:24.316Z,1005.9
2017-11-17T11:33:34.140Z,1005.84
2017-11-17T11:34:44.254Z,1005.85
2017-11-17T11:35:54.091Z,1005.88
2017-11-17T11:37:03.929Z,1005.82
2017-11-17T11:38:14.044Z,1005.84
2017-11-17T11:39:23.885Z,1005.82
2017-11-17T11:40:33.968Z,1005.81
2017-11-17T11:41:43.828Z,1005.84
2017-11-17T11:42:53.918Z,1005.83
2017-11-17T11:44:03.743Z,1005.83
2017-11-17T11:45:13.330Z,1005.86
2017-11-17T11:46:23.416Z,1005.78
2017-11-17T11:47:33.232Z,1005.8
2017-11-17T11:48:43.074Z,1005.77
2017-11-17T11:49:52.886Z,1005.79
2017-11-17T11:51:02.975Z,1005.75
2017-11-17T11:52:13.057Z,1005.75
2017-11-17T11:53:23.139Z,1005.76
2017-11-17T11:54:33.259Z,1005.79
2017-11-17T11:55:43.335Z,1005.76
2017-11-17T11:56:53.151Z,1005.73
2017-11-17T11:58:02.963Z,1005.77
2017-11-17T11:59:13.096Z,1005.74
2017-11-17T12:00:22.913Z,1005.75
2017-11-17T12:01:32.745Z,1005.76
2017-11-17T12:02:42.837Z,1005.73
2017-11-17T12:03:52.927Z,1005.79
2017-11-17T12:05:02.480Z,1005.77
2017-11-17T12:06:12.311Z,1005.81
2017-11-17T12:07:21.853Z,1005.76
2017-11-17T12:08:31.672Z,1005.8
2017-11-17T12:09:41.493Z,1005.77
2017-11-17T12:10:51.637Z,1005.79
2017-11-17T12:12:01.730Z,1005.75
2017-11-17T12:13:11.295Z,1005.73
2017-11-17T12:14:21.154Z,1005.74
2017-11-17T12:15:31.228Z,1005.79
2017-11-17T12:16:41.051Z,1005.74
2017-11-17T12:17:51.143Z,1005.72
2017-11-17T12:19:01.222Z,1005.75
2017-11-17T12:20:11.331Z,1005.74
2017-11-17T12:21:20.886Z,1005.77
2017-11-17T12:22:30.964Z,1005.73
2017-11-17T12:23:40.801Z,1005.79
2017-11-17T12:24:50.869Z,1005.74
2017-11-17T12:26:00.968Z,1005.75
2017-11-17T12:27:10.787Z,1005.7
2017-11-17T12:28:20.699Z,1005.71
2017-11-17T12:29:30.789Z,1005.66
2017-11-17T12:30:40.866Z,1005.62
2017-11-17T12:31:50.932Z,1005.67
2017-11-17T12:33:00.741Z,1005.65
2017-11-17T12:34:10.887Z,1005.7
2017-11-17T12:35:20.722Z,1005.68
2017-11-17T12:36:30.809Z,1005.68
2017-11-17T12:37:40.908Z,1005.59
2017-11-17T12:38:50.796Z,1005.58
2017-11-17T12:40:00.632Z,1005.6
2017-11-17T12:41:11.046Z,1005.62
2017-11-17T12:42:21.121Z,1005.62
2017-11-17T12:43:30.945Z,1005.61
2017-11-17T12:44:40.504Z,1005.57
2017-11-17T12:45:50.950Z,1005.64
2017-11-17T12:47:00.951Z,1005.6
2017-11-17T12:48:10.800Z,1005.57
2017-11-17T12:49:20.627Z,1005.59
2017-11-17T12:50:30.964Z,1005.57
2017-11-17T12:51:41.038Z,1005.57
2017-11-17T12:52:50.863Z,1005.56
2017-11-17T12:54:00.950Z,1005.61
2017-11-17T12:55:11.035Z,1005.56
2017-11-17T12:56:21.120Z,1005.57
2017-11-17T12:57:30.990Z,1005.51
2017-11-17T12:58:41.081Z,1005.56
2017-11-17T12:59:50.908Z,1005.6
2017-11-17T13:01:01.007Z,1005.56
2017-11-17T13:02:12.205Z,1005.54
2017-11-17T13:03:22.417Z,1005.52
2017-11-17T13:04:31.959Z,1005.51
2017-11-17T13:05:42.064Z,1005.49
2017-11-17T13:06:52.164Z,1005.58
2017-11-17T13:08:01.711Z,1005.49
2017-11-17T13:09:11.368Z,1005.57
2017-11-17T13:10:21.214Z,1005.56
2017-11-17T13:11:31.014Z,1005.51
2017-11-17T13:12:40.847Z,1005.52
2017-11-17T13:13:50.943Z,1005.51
2017-11-17T13:15:00.805Z,1005.48
2017-11-17T13:16:10.892Z,1005.5
2017-11-17T13:17:20.780Z,1005.47
2017-11-17T13:18:30.876Z,1005.41
2017-11-17T13:19:41.054Z,1005.46
2017-11-17T13:20:50.934Z,1005.39
2017-11-17T13:22:00.734Z,1005.44
2017-11-17T13:23:10.830Z,1005.42
2017-11-17T13:24:20.925Z,1005.43
2017-11-17T13:25:31.011Z,1005.43
2017-11-17T13:26:41.190Z,1005.41
2017-11-17T13:27:50.964Z,1005.44
2017-11-17T13:29:00.537Z,1005.42
2017-11-17T13:30:10.634Z,1005.43
2017-11-17T13:31:20.714Z,1005.44
2017-11-17T13:32:30.828Z,1005.45
2017-11-17T13:33:40.671Z,1005.42
2017-11-17T13:34:50.773Z,1005.46
2017-11-17T13:36:00.881Z,1005.42
2017-11-17T13:37:10.706Z,1005.44
2017-11-17T13:38:20.853Z,1005.49
2017-11-17T13:39:30.962Z,1005.41
2017-11-17T13:40:41.049Z,1005.44
2017-11-17T13:41:50.860Z,1005.44
2017-11-17T13:43:00.688Z,1005.45
2017-11-17T13:44:10.826Z,1005.46
2017-11-17T13:45:20.947Z,1005.47
2017-11-17T13:46:30.796Z,1005.44
2017-11-17T13:47:40.912Z,1005.47
2017-11-17T13:48:50.481Z,1005.53
2017-11-17T13:50:01.221Z,1005.46
2017-11-17T13:51:11.037Z,1005.4
2017-11-17T13:52:20.876Z,1005.42
2017-11-17T13:53:30.965Z,1005.37
2017-11-17T13:54:40.820Z,1005.35
2017-11-17T13:55:50.946Z,1005.4
2017-11-17T13:57:01.040Z,1005.37
2017-11-17T13:58:11.135Z,1005.37
2017-11-17T13:59:21.213Z,1005.39
2017-11-17T14:00:31.302Z,1005.38
2017-11-17T14:01:41.441Z,1005.34
2017-11-17T14:02:51.284Z,1005.32
2017-11-17T14:04:01.393Z,1005.34
2017-11-17T14:05:11.206Z,1005.35
2017-11-17T14:06:21.067Z,1005.3
2017-11-17T14:07:30.996Z,1005.3
2017-11-17T14:08:40.814Z,1005.32
2017-11-17T14:09:50.907Z,1005.36
2017-11-17T14:11:01.084Z,1005.31
2017-11-17T14:12:11.191Z,1005.29
2017-11-17T14:13:21.327Z,1005.28
2017-11-17T14:14:31.170Z,1005.3
2017-11-17T14:15:41.039Z,1005.33
2017-11-17T14:16:51.148Z,1005.26
2017-11-17T14:18:01.254Z,1005.34
2017-11-17T14:19:11.397Z,1005.32
2017-11-17T14:20:20.968Z,1005.29
2017-11-17T14:21:31.060Z,1005.28
2017-11-17T14:22:40.902Z,1005.34
2017-11-17T14:23:50.765Z,1005.31
2017-11-17T14:25:00.847Z,1005.29
2017-11-17T14:26:10.938Z,1005.32
2017-11-17T14:27:21.015Z,1005.37
2017-11-17T14:28:31.131Z,1005.36
2017-11-17T14:29:40.962Z,1005.36
2017-11-17T14:30:50.828Z,1005.34
2017-11-17T14:32:00.642Z,1005.34
2017-11-17T14:33:10.502Z,1005.34
2017-11-17T14:34:20.358Z,1005.35
2017-11-17T14:35:30.178Z,1005.32
2017-11-17T14:36:39.720Z,1005.35
2017-11-17T14:37:49.820Z,1005.36
2017-11-17T14:38:59.640Z,1005.35
2017-11-17T14:40:09.204Z,1005.39